Pagrindinis puslapis
METAR-TAF:

METAR-TAF

Oro uostai :

Akulivik, Kvebekas, Kanada

platuma: 60-49N, ilguma: 078-09W, Aukštis: 20 m

Dabartinis oras

Ataskaita buvo paskelbta 26 minutes, ne 20:00 UTC
Vėjas 8 kt iš Vakarų
Temperatūra -23°C
Drėgmė 76%
Slėgis 1005 hPa
Matomumas: 12.9 km
Mažai debesys ne aukštis 16000 ft
Mažai debesys ne aukštis 22000 ft

METAR: CYKO 202000Z 27008KT 8SM FEW160 FEW220 M23/M26 A2968 RMK AC2CI1 CI TR SLP054

Laikas: 15:26 (20:26 UTC)


TAF: trūkstamas

Orai ataskaitas ir orų prognozės (METAR, TAF).

turimą stotys yra geltonos ir raudonos taškus žemėlapyje.

Perkelti pele per norėdami pamatyti stoties vardą.

Tada spustelėkite, norėdami matyti oro stebėjimo ir prognozės.

Norėdami pakeisti žemėlapį: spustelėkite ant žalios mygtukų su juodo kryžiaus žemyn,; žalią mygtuką su brūkšneliu, jei norite nutolinti; arba žalių rodyklių gretimoms žemėlapius.


METAR-TAF: